createdAt,value
2023-02-11T00:01:18.326Z,33.00
2023-02-11T00:03:45.018Z,30.80
2023-02-11T00:06:12.003Z,32.35
2023-02-11T00:08:39.793Z,33.28
2023-02-11T00:11:07.528Z,35.05
2023-02-11T00:13:34.311Z,31.83
2023-02-11T00:16:17.324Z,29.50
2023-02-11T00:18:44.032Z,27.83
2023-02-11T00:21:13.950Z,31.50
2023-02-11T00:23:40.906Z,33.47
2023-02-11T00:26:21.746Z,33.38
2023-02-11T00:28:50.360Z,27.58
2023-02-11T00:31:19.434Z,31.42
2023-02-11T00:33:46.771Z,30.67
2023-02-11T00:36:22.122Z,29.15
2023-02-11T00:38:50.973Z,27.52
2023-02-11T00:41:18.699Z,29.35
2023-02-11T00:43:45.920Z,31.20
2023-02-11T00:46:13.213Z,29.55
2023-02-11T00:48:40.484Z,27.95
2023-02-11T00:51:07.508Z,27.30
2023-02-11T00:53:35.144Z,31.73
2023-02-11T00:56:02.338Z,29.00
2023-02-11T00:58:29.277Z,30.45
2023-02-11T01:00:56.060Z,29.23
2023-02-11T01:03:23.462Z,27.80
2023-02-11T01:05:50.476Z,36.88
2023-02-11T01:08:17.585Z,31.42
2023-02-11T01:10:44.182Z,31.60
2023-02-11T01:13:11.052Z,31.15
2023-02-11T01:15:37.798Z,26.88
2023-02-11T01:18:05.634Z,27.00
2023-02-11T01:20:32.418Z,28.02
2023-02-11T01:22:58.986Z,29.45
2023-02-11T01:25:28.560Z,27.58
2023-02-11T01:27:55.202Z,29.38
2023-02-11T01:30:21.875Z,31.23
2023-02-11T01:32:48.478Z,27.85
2023-02-11T01:35:15.121Z,26.08
2023-02-11T01:37:42.037Z,26.88
2023-02-11T01:40:17.144Z,26.00
2023-02-11T01:42:43.848Z,29.70
2023-02-11T01:46:00.460Z,26.08
2023-02-11T01:48:47.996Z,27.95
2023-02-11T01:51:22.272Z,25.63
2023-02-11T01:54:09.480Z,29.00
2023-02-11T01:57:01.626Z,30.80
2023-02-11T01:59:37.676Z,26.58
2023-02-11T02:02:10.808Z,29.85
2023-02-11T02:04:49.313Z,31.40
2023-02-11T02:07:28.274Z,26.60
2023-02-11T02:10:03.879Z,30.17
2023-02-11T02:12:30.679Z,30.58
2023-02-11T02:15:18.499Z,27.67
2023-02-11T02:18:12.963Z,27.10
2023-02-11T02:21:44.448Z,27.35
2023-02-11T02:24:39.138Z,36.28
2023-02-11T02:27:34.167Z,31.80
2023-02-11T02:30:20.291Z,28.48
2023-02-11T02:33:22.468Z,25.67
2023-02-11T02:36:24.388Z,30.92
2023-02-11T02:39:18.375Z,33.33
2023-02-11T02:41:47.898Z,27.42
2023-02-11T02:44:14.511Z,24.33
2023-02-11T02:46:41.197Z,28.98
2023-02-11T02:49:14.425Z,28.13
2023-02-11T02:52:15.367Z,23.33
2023-02-11T02:55:13.163Z,27.55
2023-02-11T02:57:59.395Z,29.25
2023-02-11T03:00:50.777Z,31.92
2023-02-11T03:03:33.918Z,26.67
2023-02-11T03:06:05.017Z,27.83
2023-02-11T03:08:39.056Z,28.70
2023-02-11T03:11:08.757Z,25.52
2023-02-11T03:13:39.439Z,25.95
2023-02-11T03:16:18.829Z,25.80
2023-02-11T03:18:53.330Z,32.80
2023-02-11T03:21:20.686Z,22.58
2023-02-11T03:23:55.583Z,26.30
2023-02-11T03:26:46.838Z,24.88
2023-02-11T03:29:21.931Z,30.60
2023-02-11T03:32:16.975Z,28.48
2023-02-11T03:35:00.241Z,27.65
2023-02-11T03:37:37.551Z,27.35
2023-02-11T03:40:13.451Z,25.48
2023-02-11T03:42:52.940Z,27.30
2023-02-11T03:45:22.718Z,27.77
2023-02-11T03:47:55.961Z,28.85
2023-02-11T03:50:24.329Z,27.52
2023-02-11T03:52:51.485Z,25.60
2023-02-11T03:55:20.992Z,30.05
2023-02-11T03:57:47.901Z,27.30
2023-02-11T04:00:15.239Z,27.88
2023-02-11T04:02:42.322Z,26.38
2023-02-11T04:05:16.001Z,29.27
2023-02-11T04:07:42.766Z,27.02
2023-02-11T04:10:11.402Z,32.30
2023-02-11T04:12:38.142Z,32.88
2023-02-11T04:15:06.152Z,30.90
2023-02-11T04:17:32.871Z,28.77
2023-02-11T04:19:59.456Z,36.80
2023-02-11T04:22:26.194Z,34.13
2023-02-11T04:24:57.408Z,32.05
2023-02-11T04:27:24.235Z,31.85
2023-02-11T04:29:50.788Z,31.08
2023-02-11T04:32:17.419Z,37.35
2023-02-11T04:34:44.096Z,37.00
2023-02-11T04:37:10.765Z,29.88
2023-02-11T04:39:37.465Z,36.42
2023-02-11T04:42:04.294Z,28.33
2023-02-11T04:44:31.110Z,29.85
2023-02-11T04:47:00.649Z,32.40
2023-02-11T04:49:27.266Z,29.00
2023-02-11T04:51:53.919Z,33.13
2023-02-11T04:54:20.543Z,30.15
2023-02-11T04:56:47.354Z,32.10
2023-02-11T04:59:14.081Z,30.40
2023-02-11T05:01:41.204Z,32.25
2023-02-11T05:04:07.883Z,34.35
2023-02-11T05:06:34.676Z,55.72
2023-02-11T05:09:01.431Z,46.40
2023-02-11T05:11:28.045Z,34.90
2023-02-11T05:13:54.709Z,29.88
2023-02-11T05:16:21.506Z,30.73
2023-02-11T05:18:52.470Z,33.92
2023-02-11T05:21:19.973Z,36.10
2023-02-11T05:23:46.963Z,36.67
2023-02-11T05:26:14.744Z,35.00
2023-02-11T05:28:42.561Z,34.60
2023-02-11T05:31:10.058Z,35.90
2023-02-11T05:33:36.787Z,35.67
2023-02-11T05:36:08.354Z,33.58
2023-02-11T05:38:35.752Z,39.20
2023-02-11T05:41:03.895Z,36.63
2023-02-11T05:43:30.754Z,36.08
2023-02-11T05:45:57.540Z,35.92
2023-02-11T05:48:24.224Z,33.63
2023-02-11T05:50:50.795Z,36.47
2023-02-11T05:53:17.545Z,34.90
2023-02-11T05:55:44.369Z,32.97
2023-02-11T05:58:10.967Z,33.78
2023-02-11T06:00:38.145Z,33.83
2023-02-11T06:03:04.898Z,37.15
2023-02-11T06:05:33.154Z,32.03
2023-02-11T06:08:05.062Z,32.38
2023-02-11T06:10:31.693Z,34.47
2023-02-11T06:12:58.304Z,33.33
2023-02-11T06:15:24.988Z,38.30
2023-02-11T06:17:51.945Z,36.53
2023-02-11T06:20:18.836Z,41.45
2023-02-11T06:22:46.046Z,41.75
2023-02-11T06:25:13.183Z,42.10
2023-02-11T06:27:39.801Z,43.53
2023-02-11T06:30:08.108Z,42.30
2023-02-11T06:32:44.042Z,42.20
2023-02-11T06:35:12.699Z,43.53
2023-02-11T06:37:42.908Z,42.60
2023-02-11T06:40:12.406Z,40.85
2023-02-11T06:42:39.521Z,36.95
2023-02-11T06:45:09.419Z,43.55
2023-02-11T06:47:37.273Z,45.45
2023-02-11T06:50:05.715Z,42.30
2023-02-11T06:52:32.968Z,40.70
2023-02-11T06:54:59.819Z,44.25
2023-02-11T06:57:26.376Z,42.30
2023-02-11T06:59:54.162Z,54.55
2023-02-11T07:02:21.235Z,47.65
2023-02-11T07:04:47.997Z,45.78
2023-02-11T07:07:14.639Z,45.70
2023-02-11T07:09:41.446Z,47.60
2023-02-11T07:12:11.176Z,42.33
2023-02-11T07:14:38.110Z,47.90
2023-02-11T07:17:05.206Z,43.55
2023-02-11T07:19:31.922Z,45.30
2023-02-11T07:21:58.562Z,44.85
2023-02-11T07:24:25.231Z,40.08
2023-02-11T07:26:53.844Z,45.17
2023-02-11T07:29:20.514Z,42.85
2023-02-11T07:31:50.351Z,41.92
2023-02-11T07:34:17.115Z,41.75
2023-02-11T07:36:44.945Z,43.00
2023-02-11T07:39:11.545Z,36.03
2023-02-11T07:41:38.833Z,40.17
2023-02-11T07:44:07.258Z,36.67
2023-02-11T07:46:45.166Z,36.53
2023-02-11T07:49:21.788Z,40.03
2023-02-11T07:51:58.389Z,38.58
2023-02-11T07:54:35.208Z,38.35
2023-02-11T07:57:06.001Z,37.47
2023-02-11T07:59:37.372Z,33.72
2023-02-11T08:02:09.415Z,52.10
2023-02-11T08:04:38.884Z,42.90
2023-02-11T08:07:10.765Z,33.72
2023-02-11T08:09:38.489Z,38.05
2023-02-11T08:12:07.893Z,38.58
2023-02-11T08:14:40.449Z,38.67
2023-02-11T08:17:12.676Z,36.47
2023-02-11T08:19:49.256Z,35.92
2023-02-11T08:22:15.979Z,35.42
2023-02-11T08:24:42.846Z,31.02
2023-02-11T08:27:14.596Z,83.97
2023-02-11T08:29:41.494Z,62.65
2023-02-11T08:32:08.178Z,69.15
2023-02-11T08:34:35.010Z,55.95
2023-02-11T08:37:01.878Z,50.88
2023-02-11T08:39:38.589Z,50.47
2023-02-11T08:42:05.270Z,70.60
2023-02-11T08:44:31.830Z,52.40
2023-02-11T08:46:58.504Z,57.67
2023-02-11T08:49:25.198Z,54.38
2023-02-11T08:51:51.932Z,46.17
2023-02-11T08:54:18.885Z,44.90
2023-02-11T08:56:45.521Z,48.20
2023-02-11T08:59:15.295Z,58.90
2023-02-11T09:01:42.033Z,71.25
2023-02-11T09:04:10.254Z,76.10
2023-02-11T09:06:36.847Z,64.45
2023-02-11T09:09:03.546Z,45.88
2023-02-11T09:11:35.500Z,36.92
2023-02-11T09:14:03.993Z,36.95
2023-02-11T09:16:34.583Z,39.60
2023-02-11T09:19:03.666Z,31.67
2023-02-11T09:21:30.921Z,37.08
2023-02-11T09:23:57.676Z,34.08
2023-02-11T09:26:30.795Z,34.85
2023-02-11T09:28:58.178Z,37.22
2023-02-11T09:31:28.254Z,32.38
2023-02-11T09:34:01.905Z,32.45
2023-02-11T09:36:33.639Z,32.38
2023-02-11T09:39:02.104Z,29.20
2023-02-11T09:42:12.502Z,31.85
2023-02-11T09:44:39.577Z,33.47
2023-02-11T09:47:32.235Z,30.33
2023-02-11T09:50:18.460Z,32.13
2023-02-11T09:53:00.317Z,33.45
2023-02-11T09:55:37.897Z,32.65
2023-02-11T09:58:13.006Z,27.08
2023-02-11T10:01:26.244Z,28.77
2023-02-11T10:04:41.356Z,27.80
2023-02-11T10:07:22.960Z,31.88
2023-02-11T10:10:22.065Z,28.95
2023-02-11T10:13:09.176Z,31.33
2023-02-11T10:16:14.755Z,31.73
2023-02-11T10:19:07.127Z,37.45
2023-02-11T10:22:09.482Z,31.35
2023-02-11T10:24:37.385Z,34.60
2023-02-11T10:27:19.514Z,30.70
2023-02-11T10:30:02.684Z,31.48
2023-02-11T10:32:43.234Z,34.08
2023-02-11T10:35:22.180Z,30.95
2023-02-11T10:37:49.473Z,30.08
2023-02-11T10:40:23.681Z,34.97
2023-02-11T10:42:59.941Z,33.78
2023-02-11T10:45:38.741Z,31.73
2023-02-11T10:48:39.704Z,32.13
2023-02-11T10:51:26.673Z,38.30
2023-02-11T10:54:07.824Z,38.05
2023-02-11T10:56:38.097Z,27.83
2023-02-11T10:59:27.327Z,29.17
2023-02-11T11:02:05.840Z,28.90
2023-02-11T11:04:45.128Z,24.58
2023-02-11T11:07:21.523Z,26.30
2023-02-11T11:10:15.801Z,29.17
2023-02-11T11:12:45.123Z,23.80
2023-02-11T11:15:27.046Z,27.92
2023-02-11T11:18:22.831Z,23.55
2023-02-11T11:21:05.698Z,28.60
2023-02-11T11:23:34.841Z,29.75
2023-02-11T11:26:10.441Z,21.70
2023-02-11T11:28:53.587Z,18.25
2023-02-11T11:31:54.909Z,23.67
2023-02-11T11:34:30.532Z,22.73
2023-02-11T11:36:59.582Z,23.52
2023-02-11T11:39:32.965Z,22.58
2023-02-11T11:42:05.217Z,23.02
2023-02-11T11:44:37.666Z,24.13
2023-02-11T11:47:24.918Z,23.48
2023-02-11T11:50:09.566Z,23.92
2023-02-11T11:52:59.999Z,20.83
2023-02-11T11:55:35.895Z,28.33
2023-02-11T11:58:02.622Z,26.20
2023-02-11T12:00:58.943Z,26.30
2023-02-11T12:03:46.494Z,25.30
2023-02-11T12:06:23.934Z,29.13
2023-02-11T12:09:12.882Z,24.30
2023-02-11T12:12:17.112Z,27.52
2023-02-11T12:14:56.016Z,26.13
2023-02-11T12:18:01.170Z,25.23
2023-02-11T12:21:29.340Z,24.67
2023-02-11T12:24:31.561Z,23.10
2023-02-11T12:27:06.457Z,22.38
2023-02-11T12:30:18.718Z,23.33
2023-02-11T12:33:19.679Z,21.35
2023-02-11T12:35:58.208Z,22.58
2023-02-11T12:38:54.184Z,21.52
2023-02-11T12:42:02.064Z,20.73
2023-02-11T12:45:18.494Z,20.88
2023-02-11T12:48:17.621Z,20.50
2023-02-11T12:51:00.480Z,19.05
2023-02-11T12:54:09.289Z,19.75
2023-02-11T12:57:17.512Z,21.20
2023-02-11T13:00:19.065Z,20.85
2023-02-11T13:02:45.714Z,19.60
2023-02-11T13:05:23.475Z,19.80
2023-02-11T13:07:54.283Z,20.58
2023-02-11T13:10:26.804Z,20.33
2023-02-11T13:13:14.080Z,22.90
2023-02-11T13:15:44.107Z,18.85
2023-02-11T13:18:44.768Z,19.67
2023-02-11T13:21:50.192Z,18.70
2023-02-11T13:24:47.868Z,19.30
2023-02-11T13:27:40.509Z,20.20
2023-02-11T13:30:32.314Z,19.23
2023-02-11T13:33:00.778Z,19.48
2023-02-11T13:35:30.332Z,18.65
2023-02-11T13:37:59.930Z,17.88
2023-02-11T13:40:31.036Z,18.85
2023-02-11T13:43:01.944Z,18.75
2023-02-11T13:45:35.684Z,23.08
2023-02-11T13:48:08.200Z,25.05
2023-02-11T13:50:47.798Z,23.17
2023-02-11T13:53:18.296Z,20.23
2023-02-11T13:55:54.579Z,21.65
2023-02-11T13:58:27.142Z,20.38
2023-02-11T14:00:54.487Z,20.60
2023-02-11T14:03:47.600Z,19.77
2023-02-11T14:06:40.552Z,18.00
2023-02-11T14:09:10.286Z,18.25
2023-02-11T14:11:44.576Z,20.02
2023-02-11T14:14:31.797Z,21.08
2023-02-11T14:16:58.637Z,19.17
2023-02-11T14:19:38.140Z,21.80
2023-02-11T14:22:27.955Z,19.63
2023-02-11T14:25:00.802Z,20.38
2023-02-11T14:27:43.741Z,22.73
2023-02-11T14:30:16.453Z,21.42
2023-02-11T14:33:27.253Z,20.08
2023-02-11T14:36:20.034Z,19.58
2023-02-11T14:38:56.290Z,19.00
2023-02-11T14:41:29.646Z,19.63
2023-02-11T14:44:04.880Z,19.83
2023-02-11T14:46:33.529Z,19.25
2023-02-11T14:49:05.106Z,17.55
2023-02-11T14:51:40.213Z,20.88
2023-02-11T14:54:25.068Z,22.48
2023-02-11T14:57:20.711Z,21.63
2023-02-11T15:00:05.586Z,19.85
2023-02-11T15:02:38.200Z,20.35
2023-02-11T15:05:26.039Z,19.02
2023-02-11T15:07:59.853Z,18.05
2023-02-11T15:10:41.740Z,21.15
2023-02-11T15:13:17.606Z,21.42
2023-02-11T15:15:46.595Z,20.17
2023-02-11T15:18:22.576Z,22.20
2023-02-11T15:20:50.512Z,20.52
2023-02-11T15:23:27.188Z,25.88
2023-02-11T15:25:56.188Z,23.38
2023-02-11T15:28:29.808Z,22.08
2023-02-11T15:31:02.854Z,20.77
2023-02-11T15:33:30.965Z,20.05
2023-02-11T15:36:01.972Z,26.33
2023-02-11T15:38:30.425Z,23.95
2023-02-11T15:41:02.376Z,23.02
2023-02-11T15:43:49.144Z,25.33
2023-02-11T15:46:19.786Z,21.73
2023-02-11T15:48:54.766Z,20.52
2023-02-11T15:51:32.782Z,24.25
2023-02-11T15:54:02.749Z,23.63
2023-02-11T15:56:44.819Z,27.40
2023-02-11T15:59:30.926Z,35.75
2023-02-11T16:02:09.694Z,25.50
2023-02-11T16:04:37.074Z,28.95
2023-02-11T16:07:05.012Z,25.42
2023-02-11T16:09:36.358Z,29.15
2023-02-11T16:12:23.684Z,25.50
2023-02-11T16:14:50.262Z,28.27
2023-02-11T16:17:26.047Z,25.98
2023-02-11T16:19:54.188Z,28.05
2023-02-11T16:22:35.140Z,32.25
2023-02-11T16:25:02.201Z,34.15
2023-02-11T16:27:40.734Z,31.65
2023-02-11T16:30:33.226Z,29.30
2023-02-11T16:32:59.995Z,28.95
2023-02-11T16:35:26.620Z,28.92
2023-02-11T16:37:54.738Z,28.63
2023-02-11T16:40:23.004Z,29.67
2023-02-11T16:42:50.633Z,32.00
2023-02-11T16:45:17.251Z,29.05
2023-02-11T16:47:43.948Z,27.88
2023-02-11T16:50:21.601Z,28.63
2023-02-11T16:52:48.865Z,30.25
2023-02-11T16:55:15.696Z,32.42
2023-02-11T16:57:42.268Z,30.85
2023-02-11T17:00:10.246Z,30.10
2023-02-11T17:02:37.935Z,33.85
2023-02-11T17:05:08.197Z,30.83
2023-02-11T17:07:35.238Z,34.20
2023-02-11T17:10:02.005Z,30.67
2023-02-11T17:12:28.733Z,33.38
2023-02-11T17:14:55.393Z,33.83
2023-02-11T17:17:23.552Z,31.20
2023-02-11T17:19:51.000Z,28.75
2023-02-11T17:22:20.092Z,29.70
2023-02-11T17:24:46.673Z,32.40
2023-02-11T17:27:13.841Z,30.25
2023-02-11T17:29:40.503Z,32.92
2023-02-11T17:32:14.902Z,30.15
2023-02-11T17:34:41.577Z,33.22
2023-02-11T17:37:11.095Z,33.55
2023-02-11T17:39:39.254Z,32.92
2023-02-11T17:42:06.743Z,35.88
2023-02-11T17:44:33.868Z,39.22
2023-02-11T17:47:00.508Z,32.00
2023-02-11T17:49:27.420Z,33.63
2023-02-11T17:51:54.080Z,36.15
2023-02-11T17:54:21.045Z,40.00
2023-02-11T17:56:50.636Z,34.55
2023-02-11T17:59:17.623Z,39.47
2023-02-11T18:01:46.520Z,39.40
2023-02-11T18:04:17.620Z,40.45
2023-02-11T18:06:50.195Z,37.13
2023-02-11T18:09:16.803Z,38.38
2023-02-11T18:11:44.816Z,44.35
2023-02-11T18:14:14.173Z,38.28
2023-02-11T18:16:43.417Z,39.70
2023-02-11T18:19:11.333Z,40.22
2023-02-11T18:21:37.972Z,42.55
2023-02-11T18:24:07.038Z,40.78
2023-02-11T18:26:34.718Z,45.03
2023-02-11T18:29:01.401Z,39.97
2023-02-11T18:31:28.221Z,44.33
2023-02-11T18:33:54.987Z,37.15
2023-02-11T18:36:22.857Z,42.10
2023-02-11T18:38:49.545Z,43.15
2023-02-11T18:41:16.155Z,43.55
2023-02-11T18:43:42.975Z,39.05
2023-02-11T18:46:14.339Z,41.25
2023-02-11T18:48:41.644Z,38.72
2023-02-11T18:51:18.638Z,40.75
2023-02-11T18:53:45.925Z,40.92
2023-02-11T18:56:18.844Z,38.67
2023-02-11T18:58:45.817Z,44.13
2023-02-11T19:01:20.784Z,37.67
2023-02-11T19:03:48.203Z,44.17
2023-02-11T19:06:25.263Z,37.35
2023-02-11T19:08:59.905Z,40.03
2023-02-11T19:11:46.782Z,37.42
2023-02-11T19:14:22.342Z,38.08
2023-02-11T19:16:52.591Z,34.35
2023-02-11T19:19:20.558Z,36.13
2023-02-11T19:21:48.811Z,40.70
2023-02-11T19:24:18.841Z,38.95
2023-02-11T19:26:47.536Z,40.95
2023-02-11T19:29:14.944Z,37.05
2023-02-11T19:31:43.291Z,37.42
2023-02-11T19:34:12.060Z,40.15
2023-02-11T19:36:38.678Z,41.67
2023-02-11T19:39:07.067Z,35.35
2023-02-11T19:41:34.388Z,38.58
2023-02-11T19:44:02.412Z,39.25
2023-02-11T19:46:34.606Z,39.83
2023-02-11T19:49:02.054Z,39.70
2023-02-11T19:51:30.101Z,41.63
2023-02-11T19:53:59.157Z,38.97
2023-02-11T19:56:28.442Z,38.05
2023-02-11T19:58:55.521Z,35.67
2023-02-11T20:01:25.013Z,41.55
2023-02-11T20:03:54.472Z,39.80
2023-02-11T20:06:31.792Z,43.40
2023-02-11T20:09:03.419Z,45.85
2023-02-11T20:11:31.362Z,45.63
2023-02-11T20:14:01.073Z,43.80
2023-02-11T20:16:46.973Z,48.22
2023-02-11T20:19:21.872Z,43.22
2023-02-11T20:21:52.648Z,47.88
2023-02-11T20:24:20.498Z,43.25
2023-02-11T20:26:48.334Z,47.95
2023-02-11T20:29:17.384Z,52.88
2023-02-11T20:31:44.418Z,46.22
2023-02-11T20:34:12.181Z,44.28
2023-02-11T20:36:40.365Z,47.38
2023-02-11T20:39:08.089Z,39.60
2023-02-11T20:41:39.581Z,48.42
2023-02-11T20:44:09.794Z,45.22
2023-02-11T20:46:40.590Z,43.47
2023-02-11T20:49:09.960Z,50.50
2023-02-11T20:51:37.203Z,43.17
2023-02-11T20:54:05.954Z,40.45
2023-02-11T20:56:36.631Z,47.05
2023-02-11T20:59:05.111Z,35.05
2023-02-11T21:01:35.574Z,37.85
2023-02-11T21:04:10.366Z,31.73
2023-02-11T21:06:42.781Z,33.67
2023-02-11T21:09:13.799Z,33.30
2023-02-11T21:11:41.519Z,34.88
2023-02-11T21:14:09.754Z,31.67
2023-02-11T21:16:36.460Z,32.22
2023-02-11T21:19:03.880Z,34.83
2023-02-11T21:21:31.356Z,58.50
2023-02-11T21:23:58.580Z,45.15
2023-02-11T21:26:25.905Z,39.20
2023-02-11T21:28:52.884Z,37.00
2023-02-11T21:31:23.851Z,31.42
2023-02-11T21:33:50.984Z,33.92
2023-02-11T21:36:18.181Z,31.35
2023-02-11T21:38:45.108Z,31.50
2023-02-11T21:41:12.264Z,28.20
2023-02-11T21:43:38.858Z,33.60
2023-02-11T21:46:11.176Z,32.60
2023-02-11T21:48:38.206Z,31.20
2023-02-11T21:51:19.437Z,34.67
2023-02-11T21:53:46.827Z,30.63
2023-02-11T21:56:17.594Z,31.70
2023-02-11T21:58:45.564Z,32.67
2023-02-11T22:01:19.299Z,29.33
2023-02-11T22:03:46.835Z,31.05
2023-02-11T22:06:27.086Z,33.22
2023-02-11T22:08:54.722Z,32.83
2023-02-11T22:11:21.826Z,37.00
2023-02-11T22:13:52.952Z,33.75
2023-02-11T22:16:19.602Z,33.85
2023-02-11T22:18:46.410Z,34.83
2023-02-11T22:21:20.317Z,33.65
2023-02-11T22:23:46.966Z,34.83
2023-02-11T22:26:17.792Z,31.55
2023-02-11T22:28:45.366Z,31.95
2023-02-11T22:31:18.947Z,35.60
2023-02-11T22:33:45.917Z,34.65
2023-02-11T22:36:23.650Z,35.03
2023-02-11T22:38:50.935Z,33.60
2023-02-11T22:41:18.256Z,31.73
2023-02-11T22:43:45.476Z,30.92
2023-02-11T22:46:16.127Z,35.72
2023-02-11T22:48:43.234Z,41.78
2023-02-11T22:51:21.031Z,46.88
2023-02-11T22:54:06.198Z,40.38
2023-02-11T22:56:34.922Z,38.28
2023-02-11T22:59:05.541Z,37.30
2023-02-11T23:01:32.432Z,36.25
2023-02-11T23:04:01.946Z,39.10
2023-02-11T23:06:28.698Z,39.63
2023-02-11T23:08:55.501Z,42.25
2023-02-11T23:11:29.132Z,40.83
2023-02-11T23:13:57.003Z,51.72
2023-02-11T23:16:28.057Z,49.67
2023-02-11T23:18:55.287Z,48.60
2023-02-11T23:21:27.835Z,50.00
2023-02-11T23:23:58.693Z,51.72
2023-02-11T23:26:25.789Z,49.55
2023-02-11T23:28:52.962Z,52.30
2023-02-11T23:31:27.085Z,50.30
2023-02-11T23:33:53.952Z,51.97
2023-02-11T23:36:21.802Z,53.55
2023-02-11T23:38:52.060Z,54.83
2023-02-11T23:41:20.053Z,48.03
2023-02-11T23:43:55.645Z,46.42
2023-02-11T23:46:23.974Z,45.55
2023-02-11T23:48:52.155Z,43.78
2023-02-11T23:51:19.924Z,45.38
2023-02-11T23:53:49.127Z,49.65
2023-02-11T23:56:19.872Z,45.05
2023-02-11T23:58:51.468Z,45.90
